sensor_id;sensor_type;location;lat;lon;timestamp;P1;durP1;ratioP1;P2;durP2;ratioP2
38208;SDS011;24016;52.102;11.584;2023-04-24T00:00:53;5.88;;;4.20;;
38208;SDS011;24016;52.102;11.584;2023-04-24T00:03:22;4.55;;;3.88;;
38208;SDS011;24016;52.102;11.584;2023-04-24T00:05:48;4.97;;;4.15;;
38208;SDS011;24016;52.102;11.584;2023-04-24T00:08:14;5.63;;;4.25;;
38208;SDS011;24016;52.102;11.584;2023-04-24T00:10:40;5.65;;;3.72;;
38208;SDS011;24016;52.102;11.584;2023-04-24T00:13:06;4.53;;;3.47;;
38208;SDS011;24016;52.102;11.584;2023-04-24T00:15:32;4.63;;;3.40;;
38208;SDS011;24016;52.102;11.584;2023-04-24T00:17:57;4.00;;;3.00;;
38208;SDS011;24016;52.102;11.584;2023-04-24T00:20:23;3.42;;;3.08;;
38208;SDS011;24016;52.102;11.584;2023-04-24T00:22:49;4.72;;;2.72;;
38208;SDS011;24016;52.102;11.584;2023-04-24T00:25:14;4.57;;;2.83;;
38208;SDS011;24016;52.102;11.584;2023-04-24T00:27:40;4.40;;;2.80;;
38208;SDS011;24016;52.102;11.584;2023-04-24T00:30:05;2.90;;;2.17;;
38208;SDS011;24016;52.102;11.584;2023-04-24T00:32:32;3.20;;;2.40;;
38208;SDS011;24016;52.102;11.584;2023-04-24T00:34:57;3.38;;;2.20;;
38208;SDS011;24016;52.102;11.584;2023-04-24T00:37:23;2.45;;;1.77;;
38208;SDS011;24016;52.102;11.584;2023-04-24T00:39:48;2.33;;;1.75;;
38208;SDS011;24016;52.102;11.584;2023-04-24T00:42:14;4.38;;;1.90;;
38208;SDS011;24016;52.102;11.584;2023-04-24T00:44:39;2.85;;;1.50;;
38208;SDS011;24016;52.102;11.584;2023-04-24T00:47:05;1.80;;;1.27;;
38208;SDS011;24016;52.102;11.584;2023-04-24T00:49:32;1.67;;;1.30;;
38208;SDS011;24016;52.102;11.584;2023-04-24T00:51:57;5.05;;;1.70;;
38208;SDS011;24016;52.102;11.584;2023-04-24T00:54:24;2.63;;;1.10;;
38208;SDS011;24016;52.102;11.584;2023-04-24T00:56:50;2.13;;;1.20;;
38208;SDS011;24016;52.102;11.584;2023-04-24T00:59:17;2.30;;;1.10;;
38208;SDS011;24016;52.102;11.584;2023-04-24T01:01:43;2.13;;;1.30;;
38208;SDS011;24016;52.102;11.584;2023-04-24T01:04:09;2.53;;;1.25;;
38208;SDS011;24016;52.102;11.584;2023-04-24T01:06:38;4.13;;;1.30;;
38208;SDS011;24016;52.102;11.584;2023-04-24T01:09:04;4.85;;;1.40;;
38208;SDS011;24016;52.102;11.584;2023-04-24T01:11:33;3.00;;;1.27;;
38208;SDS011;24016;52.102;11.584;2023-04-24T01:13:58;2.85;;;1.30;;
38208;SDS011;24016;52.102;11.584;2023-04-24T01:16:25;2.22;;;1.30;;
38208;SDS011;24016;52.102;11.584;2023-04-24T01:18:50;2.08;;;1.15;;
38208;SDS011;24016;52.102;11.584;2023-04-24T01:21:16;4.03;;;1.20;;
38208;SDS011;24016;52.102;11.584;2023-04-24T01:23:44;1.80;;;1.30;;
38208;SDS011;24016;52.102;11.584;2023-04-24T01:26:11;4.10;;;1.38;;
38208;SDS011;24016;52.102;11.584;2023-04-24T01:28:37;3.17;;;1.40;;
38208;SDS011;24016;52.102;11.584;2023-04-24T01:36:25;1.65;;;1.20;;
38208;SDS011;24016;52.102;11.584;2023-04-24T01:38:53;2.67;;;1.58;;
38208;SDS011;24016;52.102;11.584;2023-04-24T01:41:19;2.03;;;1.50;;
38208;SDS011;24016;52.102;11.584;2023-04-24T01:43:45;3.38;;;1.52;;
38208;SDS011;24016;52.102;11.584;2023-04-24T01:46:10;1.77;;;1.30;;
38208;SDS011;24016;52.102;11.584;2023-04-24T01:48:36;1.95;;;1.50;;
38208;SDS011;24016;52.102;11.584;2023-04-24T01:51:02;3.47;;;1.60;;
38208;SDS011;24016;52.102;11.584;2023-04-24T01:53:27;1.77;;;1.45;;
38208;SDS011;24016;52.102;11.584;2023-04-24T01:55:53;2.53;;;1.70;;
38208;SDS011;24016;52.102;11.584;2023-04-24T01:58:18;2.30;;;1.60;;
38208;SDS011;24016;52.102;11.584;2023-04-24T02:00:44;2.88;;;1.60;;
38208;SDS011;24016;52.102;11.584;2023-04-24T02:03:09;2.50;;;1.45;;
38208;SDS011;24016;52.102;11.584;2023-04-24T02:05:35;2.42;;;1.40;;
38208;SDS011;24016;52.102;11.584;2023-04-24T02:08:00;2.03;;;1.30;;
38208;SDS011;24016;52.102;11.584;2023-04-24T02:10:26;2.25;;;1.60;;
38208;SDS011;24016;52.102;11.584;2023-04-24T02:12:51;3.50;;;1.67;;
38208;SDS011;24016;52.102;11.584;2023-04-24T02:15:17;2.45;;;1.60;;
38208;SDS011;24016;52.102;11.584;2023-04-24T02:17:42;1.85;;;1.45;;
38208;SDS011;24016;52.102;11.584;2023-04-24T02:20:08;3.60;;;1.73;;
38208;SDS011;24016;52.102;11.584;2023-04-24T02:22:34;2.88;;;1.73;;
38208;SDS011;24016;52.102;11.584;2023-04-24T02:24:59;2.00;;;1.60;;
38208;SDS011;24016;52.102;11.584;2023-04-24T02:27:25;4.45;;;1.60;;
38208;SDS011;24016;52.102;11.584;2023-04-24T02:29:51;2.47;;;1.52;;
38208;SDS011;24016;52.102;11.584;2023-04-24T02:32:16;1.95;;;1.60;;
38208;SDS011;24016;52.102;11.584;2023-04-24T02:34:42;3.47;;;1.77;;
38208;SDS011;24016;52.102;11.584;2023-04-24T02:37:07;2.17;;;1.55;;
38208;SDS011;24016;52.102;11.584;2023-04-24T02:39:33;2.10;;;1.75;;
38208;SDS011;24016;52.102;11.584;2023-04-24T02:41:59;3.72;;;1.50;;
38208;SDS011;24016;52.102;11.584;2023-04-24T02:44:25;2.38;;;1.70;;
38208;SDS011;24016;52.102;11.584;2023-04-24T02:46:50;2.65;;;1.90;;
38208;SDS011;24016;52.102;11.584;2023-04-24T02:49:17;2.53;;;1.73;;
38208;SDS011;24016;52.102;11.584;2023-04-24T02:51:42;2.70;;;1.63;;
38208;SDS011;24016;52.102;11.584;2023-04-24T02:54:08;1.95;;;1.60;;
38208;SDS011;24016;52.102;11.584;2023-04-24T02:56:34;5.15;;;1.83;;
38208;SDS011;24016;52.102;11.584;2023-04-24T02:59:00;3.10;;;1.70;;
38208;SDS011;24016;52.102;11.584;2023-04-24T03:01:26;2.75;;;1.80;;
38208;SDS011;24016;52.102;11.584;2023-04-24T03:03:51;2.47;;;1.75;;
38208;SDS011;24016;52.102;11.584;2023-04-24T03:06:17;3.35;;;1.58;;
38208;SDS011;24016;52.102;11.584;2023-04-24T03:08:43;3.08;;;2.08;;
38208;SDS011;24016;52.102;11.584;2023-04-24T03:11:08;3.05;;;2.10;;
38208;SDS011;24016;52.102;11.584;2023-04-24T03:13:34;3.28;;;1.73;;
38208;SDS011;24016;52.102;11.584;2023-04-24T03:15:59;2.60;;;1.70;;
38208;SDS011;24016;52.102;11.584;2023-04-24T03:18:25;2.47;;;1.80;;
38208;SDS011;24016;52.102;11.584;2023-04-24T03:20:50;3.08;;;1.80;;
38208;SDS011;24016;52.102;11.584;2023-04-24T03:23:16;2.35;;;1.85;;
38208;SDS011;24016;52.102;11.584;2023-04-24T03:25:41;3.58;;;1.95;;
38208;SDS011;24016;52.102;11.584;2023-04-24T03:28:07;3.70;;;1.75;;
38208;SDS011;24016;52.102;11.584;2023-04-24T03:30:33;2.80;;;1.85;;
38208;SDS011;24016;52.102;11.584;2023-04-24T03:32:59;3.13;;;2.13;;
38208;SDS011;24016;52.102;11.584;2023-04-24T03:35:25;3.78;;;1.83;;
38208;SDS011;24016;52.102;11.584;2023-04-24T03:37:51;3.25;;;2.10;;
38208;SDS011;24016;52.102;11.584;2023-04-24T03:40:16;5.30;;;1.95;;
38208;SDS011;24016;52.102;11.584;2023-04-24T03:42:42;3.25;;;1.95;;
38208;SDS011;24016;52.102;11.584;2023-04-24T03:45:07;4.28;;;1.77;;
38208;SDS011;24016;52.102;11.584;2023-04-24T03:47:34;8.13;;;2.20;;
38208;SDS011;24016;52.102;11.584;2023-04-24T03:49:59;3.10;;;1.77;;
38208;SDS011;24016;52.102;11.584;2023-04-24T03:52:25;3.33;;;1.90;;
38208;SDS011;24016;52.102;11.584;2023-04-24T03:54:50;5.88;;;2.60;;
38208;SDS011;24016;52.102;11.584;2023-04-24T03:57:16;2.38;;;1.95;;
38208;SDS011;24016;52.102;11.584;2023-04-24T03:59:42;3.25;;;2.03;;
38208;SDS011;24016;52.102;11.584;2023-04-24T04:02:07;2.90;;;1.98;;
38208;SDS011;24016;52.102;11.584;2023-04-24T04:04:33;4.57;;;2.10;;
38208;SDS011;24016;52.102;11.584;2023-04-24T04:06:58;7.85;;;1.92;;
38208;SDS011;24016;52.102;11.584;2023-04-24T04:09:26;2.85;;;1.98;;
38208;SDS011;24016;52.102;11.584;2023-04-24T04:11:51;2.60;;;1.80;;
38208;SDS011;24016;52.102;11.584;2023-04-24T04:14:17;2.90;;;1.88;;
38208;SDS011;24016;52.102;11.584;2023-04-24T04:16:43;4.00;;;1.95;;
38208;SDS011;24016;52.102;11.584;2023-04-24T04:19:08;4.28;;;2.22;;
38208;SDS011;24016;52.102;11.584;2023-04-24T04:21:34;3.65;;;2.13;;
38208;SDS011;24016;52.102;11.584;2023-04-24T04:23:59;6.43;;;1.85;;
38208;SDS011;24016;52.102;11.584;2023-04-24T04:26:25;3.08;;;2.05;;
38208;SDS011;24016;52.102;11.584;2023-04-24T04:28:51;4.70;;;1.90;;
38208;SDS011;24016;52.102;11.584;2023-04-24T04:31:18;4.35;;;1.83;;
38208;SDS011;24016;52.102;11.584;2023-04-24T04:33:46;4.75;;;1.73;;
38208;SDS011;24016;52.102;11.584;2023-04-24T04:36:11;4.40;;;1.85;;
38208;SDS011;24016;52.102;11.584;2023-04-24T04:38:37;2.55;;;1.58;;
38208;SDS011;24016;52.102;11.584;2023-04-24T04:41:03;1.98;;;1.45;;
38208;SDS011;24016;52.102;11.584;2023-04-24T04:43:28;2.85;;;1.48;;
38208;SDS011;24016;52.102;11.584;2023-04-24T04:45:55;3.80;;;1.95;;
38208;SDS011;24016;52.102;11.584;2023-04-24T04:48:22;2.97;;;1.80;;
38208;SDS011;24016;52.102;11.584;2023-04-24T04:50:48;2.08;;;1.40;;
38208;SDS011;24016;52.102;11.584;2023-04-24T04:53:13;4.72;;;1.55;;
38208;SDS011;24016;52.102;11.584;2023-04-24T04:55:40;3.10;;;1.55;;
38208;SDS011;24016;52.102;11.584;2023-04-24T04:58:05;4.65;;;1.98;;
38208;SDS011;24016;52.102;11.584;2023-04-24T05:00:31;4.53;;;1.55;;
38208;SDS011;24016;52.102;11.584;2023-04-24T05:03:00;2.15;;;1.30;;
38208;SDS011;24016;52.102;11.584;2023-04-24T05:05:26;2.17;;;1.33;;
38208;SDS011;24016;52.102;11.584;2023-04-24T05:07:52;2.05;;;1.42;;
38208;SDS011;24016;52.102;11.584;2023-04-24T05:10:18;1.63;;;1.30;;
38208;SDS011;24016;52.102;11.584;2023-04-24T05:12:44;1.52;;;1.13;;
38208;SDS011;24016;52.102;11.584;2023-04-24T05:15:09;3.50;;;1.40;;
38208;SDS011;24016;52.102;11.584;2023-04-24T05:17:35;3.03;;;1.45;;
38208;SDS011;24016;52.102;11.584;2023-04-24T05:20:01;4.78;;;1.73;;
38208;SDS011;24016;52.102;11.584;2023-04-24T05:22:30;4.63;;;1.92;;
38208;SDS011;24016;52.102;11.584;2023-04-24T05:24:56;3.25;;;1.90;;
38208;SDS011;24016;52.102;11.584;2023-04-24T05:27:22;2.80;;;1.42;;
38208;SDS011;24016;52.102;11.584;2023-04-24T05:29:47;3.55;;;1.65;;
38208;SDS011;24016;52.102;11.584;2023-04-24T05:32:13;3.10;;;1.73;;
38208;SDS011;24016;52.102;11.584;2023-04-24T05:34:39;2.25;;;1.40;;
38208;SDS011;24016;52.102;11.584;2023-04-24T05:37:04;2.55;;;1.30;;
38208;SDS011;24016;52.102;11.584;2023-04-24T05:39:33;2.33;;;1.23;;
38208;SDS011;24016;52.102;11.584;2023-04-24T05:41:59;3.03;;;1.50;;
38208;SDS011;24016;52.102;11.584;2023-04-24T05:44:26;2.45;;;1.33;;
38208;SDS011;24016;52.102;11.584;2023-04-24T05:46:51;3.28;;;1.33;;
38208;SDS011;24016;52.102;11.584;2023-04-24T05:49:17;2.45;;;1.20;;
38208;SDS011;24016;52.102;11.584;2023-04-24T05:51:43;1.98;;;1.23;;
38208;SDS011;24016;52.102;11.584;2023-04-24T05:54:08;3.92;;;1.27;;
38208;SDS011;24016;52.102;11.584;2023-04-24T05:56:35;5.68;;;1.63;;
38208;SDS011;24016;52.102;11.584;2023-04-24T05:59:01;2.90;;;1.30;;
38208;SDS011;24016;52.102;11.584;2023-04-24T06:01:26;3.03;;;1.80;;
38208;SDS011;24016;52.102;11.584;2023-04-24T06:03:52;2.35;;;1.75;;
38208;SDS011;24016;52.102;11.584;2023-04-24T06:06:18;3.15;;;1.52;;
38208;SDS011;24016;52.102;11.584;2023-04-24T06:08:44;2.45;;;1.80;;
38208;SDS011;24016;52.102;11.584;2023-04-24T06:11:10;6.05;;;1.60;;
38208;SDS011;24016;52.102;11.584;2023-04-24T06:13:36;3.05;;;1.50;;
38208;SDS011;24016;52.102;11.584;2023-04-24T06:16:01;3.33;;;1.38;;
38208;SDS011;24016;52.102;11.584;2023-04-24T06:18:27;2.92;;;1.30;;
38208;SDS011;24016;52.102;11.584;2023-04-24T06:20:52;1.88;;;1.17;;
38208;SDS011;24016;52.102;11.584;2023-04-24T06:23:18;3.72;;;1.70;;
38208;SDS011;24016;52.102;11.584;2023-04-24T06:25:43;2.42;;;1.63;;
38208;SDS011;24016;52.102;11.584;2023-04-24T06:28:09;2.72;;;1.48;;
38208;SDS011;24016;52.102;11.584;2023-04-24T06:30:34;2.83;;;1.60;;
38208;SDS011;24016;52.102;11.584;2023-04-24T06:33:00;1.88;;;1.40;;
38208;SDS011;24016;52.102;11.584;2023-04-24T06:35:25;3.97;;;1.92;;
38208;SDS011;24016;52.102;11.584;2023-04-24T06:37:51;3.08;;;1.20;;
38208;SDS011;24016;52.102;11.584;2023-04-24T06:40:16;2.65;;;1.70;;
38208;SDS011;24016;52.102;11.584;2023-04-24T06:42:43;3.97;;;1.67;;
38208;SDS011;24016;52.102;11.584;2023-04-24T06:45:09;5.07;;;1.60;;
38208;SDS011;24016;52.102;11.584;2023-04-24T06:47:35;4.78;;;1.60;;
38208;SDS011;24016;52.102;11.584;2023-04-24T06:50:01;3.25;;;1.42;;
38208;SDS011;24016;52.102;11.584;2023-04-24T06:52:26;2.92;;;1.20;;
38208;SDS011;24016;52.102;11.584;2023-04-24T06:54:52;3.70;;;1.60;;
38208;SDS011;24016;52.102;11.584;2023-04-24T06:57:17;3.03;;;1.50;;
38208;SDS011;24016;52.102;11.584;2023-04-24T06:59:43;2.60;;;1.30;;
38208;SDS011;24016;52.102;11.584;2023-04-24T07:02:09;4.00;;;1.38;;
38208;SDS011;24016;52.102;11.584;2023-04-24T07:04:35;2.08;;;1.20;;
38208;SDS011;24016;52.102;11.584;2023-04-24T07:07:01;3.83;;;1.27;;
38208;SDS011;24016;52.102;11.584;2023-04-24T07:09:27;2.72;;;1.25;;
38208;SDS011;24016;52.102;11.584;2023-04-24T07:11:52;3.90;;;1.48;;
38208;SDS011;24016;52.102;11.584;2023-04-24T07:14:18;2.80;;;1.30;;
38208;SDS011;24016;52.102;11.584;2023-04-24T07:16:44;4.68;;;1.30;;
38208;SDS011;24016;52.102;11.584;2023-04-24T07:19:10;3.40;;;1.30;;
38208;SDS011;24016;52.102;11.584;2023-04-24T07:21:37;4.22;;;1.10;;
38208;SDS011;24016;52.102;11.584;2023-04-24T07:24:02;5.93;;;1.10;;
38208;SDS011;24016;52.102;11.584;2023-04-24T07:26:29;2.63;;;1.10;;
38208;SDS011;24016;52.102;11.584;2023-04-24T07:28:55;3.05;;;1.20;;
38208;SDS011;24016;52.102;11.584;2023-04-24T07:31:21;2.72;;;1.13;;
38208;SDS011;24016;52.102;11.584;2023-04-24T07:33:46;2.22;;;1.23;;
38208;SDS011;24016;52.102;11.584;2023-04-24T07:36:13;2.13;;;1.13;;
38208;SDS011;24016;52.102;11.584;2023-04-24T07:38:42;7.13;;;1.40;;
38208;SDS011;24016;52.102;11.584;2023-04-24T07:41:08;5.97;;;1.55;;
38208;SDS011;24016;52.102;11.584;2023-04-24T07:43:34;1.85;;;1.02;;
38208;SDS011;24016;52.102;11.584;2023-04-24T07:46:00;2.35;;;1.40;;
38208;SDS011;24016;52.102;11.584;2023-04-24T07:48:25;1.92;;;0.98;;
38208;SDS011;24016;52.102;11.584;2023-04-24T07:50:51;3.38;;;1.35;;
38208;SDS011;24016;52.102;11.584;2023-04-24T07:53:17;2.20;;;1.10;;
38208;SDS011;24016;52.102;11.584;2023-04-24T07:55:43;1.70;;;1.05;;
38208;SDS011;24016;52.102;11.584;2023-04-24T07:58:08;3.92;;;0.90;;
38208;SDS011;24016;52.102;11.584;2023-04-24T08:00:34;2.75;;;1.10;;
38208;SDS011;24016;52.102;11.584;2023-04-24T08:03:00;1.83;;;1.00;;
38208;SDS011;24016;52.102;11.584;2023-04-24T08:05:26;3.95;;;1.10;;
38208;SDS011;24016;52.102;11.584;2023-04-24T08:07:53;4.38;;;0.90;;
38208;SDS011;24016;52.102;11.584;2023-04-24T08:10:19;2.20;;;1.00;;
38208;SDS011;24016;52.102;11.584;2023-04-24T08:12:46;2.15;;;0.98;;
38208;SDS011;24016;52.102;11.584;2023-04-24T08:15:11;2.78;;;0.98;;
38208;SDS011;24016;52.102;11.584;2023-04-24T08:17:37;1.55;;;0.95;;
38208;SDS011;24016;52.102;11.584;2023-04-24T08:20:03;3.13;;;0.95;;
38208;SDS011;24016;52.102;11.584;2023-04-24T08:22:30;1.52;;;0.80;;
38208;SDS011;24016;52.102;11.584;2023-04-24T08:24:56;1.83;;;1.10;;
38208;SDS011;24016;52.102;11.584;2023-04-24T08:27:23;1.70;;;0.90;;
38208;SDS011;24016;52.102;11.584;2023-04-24T08:29:49;1.77;;;0.82;;
38208;SDS011;24016;52.102;11.584;2023-04-24T08:32:15;1.58;;;0.90;;
38208;SDS011;24016;52.102;11.584;2023-04-24T08:34:40;2.08;;;0.80;;
38208;SDS011;24016;52.102;11.584;2023-04-24T08:37:06;2.03;;;0.90;;
38208;SDS011;24016;52.102;11.584;2023-04-24T08:39:31;3.83;;;1.02;;
38208;SDS011;24016;52.102;11.584;2023-04-24T08:41:57;2.47;;;1.00;;
38208;SDS011;24016;52.102;11.584;2023-04-24T08:44:30;1.70;;;0.88;;
38208;SDS011;24016;52.102;11.584;2023-04-24T08:46:57;1.95;;;1.08;;
38208;SDS011;24016;52.102;11.584;2023-04-24T08:49:23;1.83;;;0.82;;
38208;SDS011;24016;52.102;11.584;2023-04-24T08:51:50;1.25;;;0.75;;
38208;SDS011;24016;52.102;11.584;2023-04-24T08:54:17;2.42;;;1.08;;
38208;SDS011;24016;52.102;11.584;2023-04-24T08:56:43;1.65;;;0.73;;
38208;SDS011;24016;52.102;11.584;2023-04-24T08:59:09;3.13;;;0.90;;
38208;SDS011;24016;52.102;11.584;2023-04-24T09:01:35;1.60;;;0.93;;
38208;SDS011;24016;52.102;11.584;2023-04-24T09:04:04;2.58;;;1.17;;
38208;SDS011;24016;52.102;11.584;2023-04-24T09:06:32;2.40;;;0.80;;
38208;SDS011;24016;52.102;11.584;2023-04-24T09:09:02;1.98;;;0.88;;
38208;SDS011;24016;52.102;11.584;2023-04-24T09:11:29;3.42;;;0.85;;
38208;SDS011;24016;52.102;11.584;2023-04-24T09:13:56;2.60;;;0.90;;
38208;SDS011;24016;52.102;11.584;2023-04-24T09:16:22;1.17;;;0.70;;
38208;SDS011;24016;52.102;11.584;2023-04-24T09:18:51;1.15;;;0.85;;
38208;SDS011;24016;52.102;11.584;2023-04-24T09:21:17;1.63;;;0.77;;
38208;SDS011;24016;52.102;11.584;2023-04-24T09:23:46;1.10;;;0.80;;
38208;SDS011;24016;52.102;11.584;2023-04-24T09:26:21;1.20;;;0.70;;
38208;SDS011;24016;52.102;11.584;2023-04-24T09:28:47;1.05;;;0.90;;
38208;SDS011;24016;52.102;11.584;2023-04-24T09:31:14;2.17;;;0.98;;
38208;SDS011;24016;52.102;11.584;2023-04-24T09:34:04;1.10;;;0.82;;
38208;SDS011;24016;52.102;11.584;2023-04-24T09:39:02;1.75;;;1.05;;
38208;SDS011;24016;52.102;11.584;2023-04-24T09:41:31;2.17;;;1.10;;
38208;SDS011;24016;52.102;11.584;2023-04-24T09:43:57;0.95;;;0.90;;
38208;SDS011;24016;52.102;11.584;2023-04-24T09:46:35;1.95;;;1.25;;
38208;SDS011;24016;52.102;11.584;2023-04-24T09:49:07;1.95;;;1.20;;
38208;SDS011;24016;52.102;11.584;2023-04-24T09:51:36;3.42;;;1.20;;
38208;SDS011;24016;52.102;11.584;2023-04-24T09:54:03;3.95;;;1.30;;
38208;SDS011;24016;52.102;11.584;2023-04-24T09:56:33;1.90;;;1.15;;
38208;SDS011;24016;52.102;11.584;2023-04-24T09:59:05;1.95;;;1.30;;
38208;SDS011;24016;52.102;11.584;2023-04-24T10:01:32;1.55;;;1.00;;
38208;SDS011;24016;52.102;11.584;2023-04-24T10:03:58;1.63;;;1.20;;
38208;SDS011;24016;52.102;11.584;2023-04-24T10:06:29;1.73;;;1.20;;
38208;SDS011;24016;52.102;11.584;2023-04-24T10:08:58;2.92;;;1.60;;
38208;SDS011;24016;52.102;11.584;2023-04-24T10:11:27;1.95;;;1.30;;
38208;SDS011;24016;52.102;11.584;2023-04-24T10:13:53;2.17;;;1.40;;
38208;SDS011;24016;52.102;11.584;2023-04-24T10:16:20;1.98;;;1.20;;
38208;SDS011;24016;52.102;11.584;2023-04-24T10:18:47;1.70;;;1.30;;
38208;SDS011;24016;52.102;11.584;2023-04-24T10:21:14;2.05;;;1.20;;
38208;SDS011;24016;52.102;11.584;2023-04-24T10:23:41;2.42;;;1.40;;
38208;SDS011;24016;52.102;11.584;2023-04-24T10:26:08;2.33;;;1.42;;
38208;SDS011;24016;52.102;11.584;2023-04-24T10:28:35;1.42;;;1.13;;
38208;SDS011;24016;52.102;11.584;2023-04-24T10:31:01;2.45;;;1.13;;
38208;SDS011;24016;52.102;11.584;2023-04-24T10:33:27;5.70;;;1.70;;
38208;SDS011;24016;52.102;11.584;2023-04-24T10:35:54;2.63;;;1.27;;
38208;SDS011;24016;52.102;11.584;2023-04-24T10:38:24;2.35;;;1.30;;
38208;SDS011;24016;52.102;11.584;2023-04-24T10:41:13;1.95;;;1.20;;
38208;SDS011;24016;52.102;11.584;2023-04-24T10:43:44;3.45;;;1.10;;
38208;SDS011;24016;52.102;11.584;2023-04-24T10:46:10;2.20;;;1.20;;
38208;SDS011;24016;52.102;11.584;2023-04-24T10:48:44;1.75;;;1.15;;
38208;SDS011;24016;52.102;11.584;2023-04-24T10:51:23;1.42;;;1.20;;
38208;SDS011;24016;52.102;11.584;2023-04-24T10:54:21;1.27;;;1.17;;
38208;SDS011;24016;52.102;11.584;2023-04-24T10:56:48;1.15;;;0.73;;
38208;SDS011;24016;52.102;11.584;2023-04-24T10:59:23;2.45;;;0.90;;
38208;SDS011;24016;52.102;11.584;2023-04-24T11:01:53;2.92;;;1.08;;
38208;SDS011;24016;52.102;11.584;2023-04-24T11:04:31;3.22;;;1.27;;
38208;SDS011;24016;52.102;11.584;2023-04-24T11:06:58;4.63;;;1.35;;
38208;SDS011;24016;52.102;11.584;2023-04-24T11:09:26;1.40;;;1.00;;
38208;SDS011;24016;52.102;11.584;2023-04-24T11:12:02;2.85;;;1.20;;
38208;SDS011;24016;52.102;11.584;2023-04-24T11:14:31;1.92;;;0.95;;
38208;SDS011;24016;52.102;11.584;2023-04-24T11:17:32;2.78;;;1.05;;
38208;SDS011;24016;52.102;11.584;2023-04-24T11:20:05;1.67;;;1.10;;
38208;SDS011;24016;52.102;11.584;2023-04-24T11:22:37;1.67;;;1.10;;
38208;SDS011;24016;52.102;11.584;2023-04-24T11:25:07;3.20;;;1.10;;
38208;SDS011;24016;52.102;11.584;2023-04-24T11:27:43;1.88;;;1.17;;
38208;SDS011;24016;52.102;11.584;2023-04-24T11:30:11;2.15;;;1.30;;
38208;SDS011;24016;52.102;11.584;2023-04-24T11:32:37;1.25;;;0.93;;
38208;SDS011;24016;52.102;11.584;2023-04-24T11:35:20;1.30;;;1.20;;
38208;SDS011;24016;52.102;11.584;2023-04-24T11:37:50;1.63;;;1.20;;
38208;SDS011;24016;52.102;11.584;2023-04-24T11:40:17;4.07;;;1.17;;
38208;SDS011;24016;52.102;11.584;2023-04-24T11:42:49;1.63;;;1.20;;
38208;SDS011;24016;52.102;11.584;2023-04-24T11:47:54;4.03;;;1.40;;
38208;SDS011;24016;52.102;11.584;2023-04-24T11:50:23;1.65;;;1.30;;
38208;SDS011;24016;52.102;11.584;2023-04-24T11:52:51;4.10;;;1.50;;
38208;SDS011;24016;52.102;11.584;2023-04-24T11:57:43;2.13;;;1.40;;
38208;SDS011;24016;52.102;11.584;2023-04-24T12:00:14;3.33;;;1.20;;
38208;SDS011;24016;52.102;11.584;2023-04-24T12:02:45;5.22;;;1.52;;
38208;SDS011;24016;52.102;11.584;2023-04-24T12:07:50;1.38;;;0.90;;
38208;SDS011;24016;52.102;11.584;2023-04-24T12:10:20;3.65;;;1.48;;
38208;SDS011;24016;52.102;11.584;2023-04-24T12:12:46;2.05;;;1.10;;
38208;SDS011;24016;52.102;11.584;2023-04-24T12:15:12;2.10;;;1.10;;
38208;SDS011;24016;52.102;11.584;2023-04-24T12:17:40;2.97;;;1.13;;
38208;SDS011;24016;52.102;11.584;2023-04-24T12:20:07;2.30;;;1.08;;
38208;SDS011;24016;52.102;11.584;2023-04-24T12:22:52;6.80;;;1.83;;
38208;SDS011;24016;52.102;11.584;2023-04-24T12:25:20;3.22;;;1.50;;
38208;SDS011;24016;52.102;11.584;2023-04-24T12:27:52;1.15;;;1.00;;
38208;SDS011;24016;52.102;11.584;2023-04-24T12:30:20;2.35;;;1.10;;
38208;SDS011;24016;52.102;11.584;2023-04-24T12:32:49;2.83;;;1.10;;
38208;SDS011;24016;52.102;11.584;2023-04-24T12:35:19;1.83;;;1.30;;
38208;SDS011;24016;52.102;11.584;2023-04-24T12:37:46;3.88;;;1.30;;
38208;SDS011;24016;52.102;11.584;2023-04-24T12:40:12;1.85;;;0.90;;
38208;SDS011;24016;52.102;11.584;2023-04-24T12:42:42;3.20;;;1.10;;
38208;SDS011;24016;52.102;11.584;2023-04-24T12:45:09;2.42;;;1.25;;
38208;SDS011;24016;52.102;11.584;2023-04-24T12:47:36;2.85;;;0.85;;
38208;SDS011;24016;52.102;11.584;2023-04-24T12:50:02;2.80;;;1.08;;
38208;SDS011;24016;52.102;11.584;2023-04-24T12:52:29;2.15;;;0.90;;
38208;SDS011;24016;52.102;11.584;2023-04-24T12:54:56;2.65;;;1.50;;
38208;SDS011;24016;52.102;11.584;2023-04-24T12:57:23;2.13;;;1.38;;
38208;SDS011;24016;52.102;11.584;2023-04-24T12:59:49;2.63;;;1.30;;
38208;SDS011;24016;52.102;11.584;2023-04-24T13:02:15;2.17;;;1.27;;
38208;SDS011;24016;52.102;11.584;2023-04-24T13:04:43;1.02;;;0.90;;
38208;SDS011;24016;52.102;11.584;2023-04-24T13:07:11;1.98;;;1.27;;
38208;SDS011;24016;52.102;11.584;2023-04-24T13:09:36;3.05;;;1.30;;
38208;SDS011;24016;52.102;11.584;2023-04-24T13:12:02;1.77;;;1.10;;
38208;SDS011;24016;52.102;11.584;2023-04-24T13:14:28;1.80;;;1.10;;
38208;SDS011;24016;52.102;11.584;2023-04-24T13:16:53;2.45;;;1.35;;
38208;SDS011;24016;52.102;11.584;2023-04-24T13:19:19;2.45;;;1.20;;
38208;SDS011;24016;52.102;11.584;2023-04-24T13:21:45;1.73;;;1.27;;
38208;SDS011;24016;52.102;11.584;2023-04-24T13:24:10;2.22;;;1.10;;
38208;SDS011;24016;52.102;11.584;2023-04-24T13:26:36;4.38;;;1.30;;
38208;SDS011;24016;52.102;11.584;2023-04-24T13:29:01;1.45;;;1.15;;
38208;SDS011;24016;52.102;11.584;2023-04-24T13:31:28;5.72;;;1.10;;
38208;SDS011;24016;52.102;11.584;2023-04-24T13:33:54;1.02;;;0.90;;
38208;SDS011;24016;52.102;11.584;2023-04-24T13:36:20;2.50;;;1.23;;
38208;SDS011;24016;52.102;11.584;2023-04-24T13:38:45;1.52;;;1.10;;
38208;SDS011;24016;52.102;11.584;2023-04-24T13:41:11;1.33;;;1.20;;
38208;SDS011;24016;52.102;11.584;2023-04-24T13:43:36;1.85;;;1.20;;
38208;SDS011;24016;52.102;11.584;2023-04-24T13:46:02;2.35;;;1.20;;
38208;SDS011;24016;52.102;11.584;2023-04-24T13:48:28;3.95;;;1.00;;
38208;SDS011;24016;52.102;11.584;2023-04-24T13:50:54;3.67;;;1.40;;
38208;SDS011;24016;52.102;11.584;2023-04-24T13:53:20;4.28;;;1.20;;
38208;SDS011;24016;52.102;11.584;2023-04-24T13:55:46;3.85;;;1.42;;
38208;SDS011;24016;52.102;11.584;2023-04-24T13:58:12;2.60;;;1.33;;
38208;SDS011;24016;52.102;11.584;2023-04-24T14:00:37;2.92;;;1.40;;
38208;SDS011;24016;52.102;11.584;2023-04-24T14:03:03;4.40;;;1.30;;
38208;SDS011;24016;52.102;11.584;2023-04-24T14:05:29;1.75;;;1.35;;
38208;SDS011;24016;52.102;11.584;2023-04-24T14:07:57;2.53;;;1.00;;
38208;SDS011;24016;52.102;11.584;2023-04-24T14:10:23;1.80;;;1.38;;
38208;SDS011;24016;52.102;11.584;2023-04-24T14:12:48;1.10;;;1.00;;
38208;SDS011;24016;52.102;11.584;2023-04-24T14:15:14;1.80;;;0.88;;
38208;SDS011;24016;52.102;11.584;2023-04-24T14:17:42;0.93;;;0.80;;
38208;SDS011;24016;52.102;11.584;2023-04-24T14:20:08;1.85;;;0.80;;
38208;SDS011;24016;52.102;11.584;2023-04-24T14:22:34;2.85;;;0.88;;
38208;SDS011;24016;52.102;11.584;2023-04-24T14:24:59;1.33;;;1.10;;
38208;SDS011;24016;52.102;11.584;2023-04-24T14:27:25;1.05;;;0.85;;
38208;SDS011;24016;52.102;11.584;2023-04-24T14:29:51;0.90;;;0.80;;
38208;SDS011;24016;52.102;11.584;2023-04-24T14:32:17;1.35;;;0.90;;
38208;SDS011;24016;52.102;11.584;2023-04-24T14:34:43;1.10;;;0.90;;
38208;SDS011;24016;52.102;11.584;2023-04-24T14:37:08;0.82;;;0.70;;
38208;SDS011;24016;52.102;11.584;2023-04-24T14:39:34;0.68;;;0.60;;
38208;SDS011;24016;52.102;11.584;2023-04-24T14:42:00;1.17;;;0.70;;
38208;SDS011;24016;52.102;11.584;2023-04-24T14:44:26;2.05;;;0.43;;
38208;SDS011;24016;52.102;11.584;2023-04-24T14:46:52;1.35;;;0.80;;